createdAt,value
2017-11-27T00:00:48.090Z,1019.3
2017-11-27T00:01:49.475Z,1019.3
2017-11-27T00:03:10.947Z,1019.2
2017-11-27T00:04:12.330Z,1019.2
2017-11-27T00:05:33.811Z,1019.1
2017-11-27T00:06:35.195Z,1019.1
2017-11-27T00:07:56.835Z,1019.0
2017-11-27T00:08:58.227Z,1019.1
2017-11-27T00:10:19.698Z,1019.0
2017-11-27T00:11:21.084Z,1019.0
2017-11-27T00:12:42.556Z,1018.9
2017-11-27T00:13:43.939Z,1019.0
2017-11-27T00:15:05.427Z,1019.1
2017-11-27T00:16:06.811Z,1019.1
2017-11-27T00:17:28.283Z,1019.1
2017-11-27T00:18:29.672Z,1019.0
2017-11-27T00:19:51.147Z,1019.1
2017-11-27T00:20:52.531Z,1019.1
2017-11-27T00:22:14.158Z,1019.1
2017-11-27T00:23:15.539Z,1019.1
2017-11-27T00:24:37.020Z,1019.1
2017-11-27T00:25:38.405Z,1019.1
2017-11-27T00:26:59.883Z,1019.1
2017-11-27T00:28:01.259Z,1019.1
2017-11-27T00:29:22.748Z,1019.2
2017-11-27T00:30:24.131Z,1019.2
2017-11-27T00:31:45.603Z,1019.1
2017-11-27T00:32:46.987Z,1019.2
2017-11-27T00:34:08.469Z,1019.1
2017-11-27T00:35:09.852Z,1019.1
2017-11-27T00:36:31.347Z,1019.0
2017-11-27T00:37:32.736Z,1019.1
2017-11-27T00:38:54.203Z,1019.1
2017-11-27T00:39:55.594Z,1019.0
2017-11-27T00:41:17.059Z,1019.1
2017-11-27T00:42:18.443Z,1019.1
2017-11-27T00:43:40.066Z,1019.0
2017-11-27T00:44:41.451Z,1019.0
2017-11-27T00:46:02.928Z,1019.0
2017-11-27T00:47:04.314Z,1019.0
2017-11-27T00:48:25.779Z,1018.9
2017-11-27T00:49:27.163Z,1018.9
2017-11-27T00:50:48.656Z,1019.0
2017-11-27T00:51:50.036Z,1018.9
2017-11-27T00:53:11.507Z,1018.9
2017-11-27T00:54:12.891Z,1019.0
2017-11-27T00:55:34.364Z,1018.9
2017-11-27T00:56:35.748Z,1018.9
2017-11-27T00:57:57.260Z,1018.9
2017-11-27T00:58:58.645Z,1018.9
2017-11-27T01:00:20.108Z,1018.9
2017-11-27T01:01:21.491Z,1018.9
2017-11-27T01:02:42.964Z,1018.9
2017-11-27T01:03:44.350Z,1018.9
2017-11-27T01:05:05.836Z,1019.0
2017-11-27T01:06:07.220Z,1019.0
2017-11-27T01:07:28.693Z,1019.0
2017-11-27T01:08:30.075Z,1019.0
2017-11-27T01:09:51.548Z,1019.0
2017-11-27T01:10:52.933Z,1019.0
2017-11-27T01:12:14.436Z,1019.0
2017-11-27T01:13:15.821Z,1019.0
2017-11-27T01:14:37.295Z,1019.0
2017-11-27T01:15:38.676Z,1018.9
2017-11-27T01:17:00.155Z,1019.0
2017-11-27T01:18:01.540Z,1018.9
2017-11-27T01:19:23.028Z,1018.9
2017-11-27T01:20:24.412Z,1018.9
2017-11-27T01:21:45.885Z,1018.9
2017-11-27T01:22:47.269Z,1018.9
2017-11-27T01:24:08.748Z,1018.9
2017-11-27T01:25:10.132Z,1018.9
2017-11-27T01:26:31.779Z,1018.9
2017-11-27T01:27:33.148Z,1018.9
2017-11-27T01:28:54.620Z,1019.0
2017-11-27T01:29:56.005Z,1019.0
2017-11-27T01:31:17.484Z,1019.0
2017-11-27T01:32:18.869Z,1019.0
2017-11-27T01:33:40.492Z,1018.9
2017-11-27T01:34:41.876Z,1019.0
2017-11-27T01:36:03.356Z,1018.9
2017-11-27T01:37:04.748Z,1019.0
2017-11-27T01:38:26.213Z,1019.0
2017-11-27T01:39:27.596Z,1018.9
2017-11-27T01:40:49.101Z,1018.9
2017-11-27T01:41:50.485Z,1018.9
2017-11-27T01:43:11.964Z,1018.9
2017-11-27T01:44:13.350Z,1018.9
2017-11-27T01:45:34.821Z,1018.9
2017-11-27T01:46:36.204Z,1018.9
2017-11-27T01:47:57.698Z,1018.9
2017-11-27T01:48:59.076Z,1019.0
2017-11-27T01:50:20.549Z,1019.0
2017-11-27T01:51:21.936Z,1019.0
2017-11-27T01:52:43.429Z,1019.1
2017-11-27T01:53:44.797Z,1019.0
2017-11-27T01:55:06.428Z,1019.1
2017-11-27T01:56:07.812Z,1019.0
2017-11-27T01:57:29.294Z,1019.0
2017-11-27T01:58:30.676Z,1019.0
2017-11-27T01:59:52.149Z,1018.9
2017-11-27T02:00:53.532Z,1018.9
2017-11-27T02:02:15.045Z,1018.9
2017-11-27T02:03:16.429Z,1018.9
2017-11-27T02:04:37.910Z,1018.9
2017-11-27T02:05:39.296Z,1018.8
2017-11-27T02:07:00.765Z,1018.7
2017-11-27T02:08:02.150Z,1018.7
2017-11-27T02:09:23.773Z,1018.7
2017-11-27T02:10:25.157Z,1018.7
2017-11-27T02:11:46.651Z,1018.7
2017-11-27T02:12:48.013Z,1018.7
2017-11-27T02:14:09.485Z,1018.7
2017-11-27T02:15:10.870Z,1018.6
2017-11-27T02:16:32.373Z,1018.6
2017-11-27T02:17:33.763Z,1018.6
2017-11-27T02:18:55.229Z,1018.6
2017-11-27T02:19:56.614Z,1018.6
2017-11-27T02:21:18.085Z,1018.6
2017-11-27T02:22:19.470Z,1018.6
2017-11-27T02:23:41.110Z,1018.5
2017-11-27T02:24:42.501Z,1018.5
2017-11-27T02:26:03.975Z,1018.6
2017-11-27T02:27:05.358Z,1018.5
2017-11-27T02:28:26.837Z,1018.5
2017-11-27T02:29:28.238Z,1018.5
2017-11-27T02:30:49.846Z,1018.5
2017-11-27T02:31:51.235Z,1018.5
2017-11-27T02:33:12.711Z,1018.5
2017-11-27T02:34:14.093Z,1018.4
2017-11-27T02:35:35.566Z,1018.4
2017-11-27T02:36:36.952Z,1018.5
2017-11-27T02:37:58.462Z,1018.4
2017-11-27T02:38:59.847Z,1018.5
2017-11-27T02:40:21.337Z,1018.5
2017-11-27T02:41:22.711Z,1018.5
2017-11-27T02:42:44.182Z,1018.5
2017-11-27T02:43:45.566Z,1018.5
2017-11-27T02:45:07.054Z,1018.4
2017-11-27T02:46:08.453Z,1018.4
2017-11-27T02:47:29.910Z,1018.4
2017-11-27T02:48:31.294Z,1018.4
2017-11-27T02:49:52.767Z,1018.4
2017-11-27T02:50:54.150Z,1018.3
2017-11-27T02:52:15.787Z,1018.3
2017-11-27T02:53:17.169Z,1018.2
2017-11-27T02:54:38.640Z,1018.3
2017-11-27T02:55:40.038Z,1018.2
2017-11-27T02:57:01.495Z,1018.2
2017-11-27T02:58:02.882Z,1018.2
2017-11-27T02:59:24.367Z,1018.1
2017-11-27T03:00:25.750Z,1018.1
2017-11-27T03:01:47.230Z,1018.1
2017-11-27T03:02:48.610Z,1018.1
2017-11-27T03:04:10.077Z,1018.1
2017-11-27T03:05:11.463Z,1018.1
2017-11-27T03:06:33.094Z,1018.1
2017-11-27T03:07:34.478Z,1018.1
2017-11-27T03:08:55.950Z,1018.1
2017-11-27T03:09:57.334Z,1018.1
2017-11-27T03:11:18.808Z,1018.0
2017-11-27T03:12:20.193Z,1018.0
2017-11-27T03:13:41.816Z,1018.0
2017-11-27T03:14:43.199Z,1018.1
2017-11-27T03:16:04.671Z,1018.0
2017-11-27T03:17:06.058Z,1018.1
2017-11-27T03:18:27.535Z,1018.0
2017-11-27T03:19:28.918Z,1018.0
2017-11-27T03:20:50.423Z,1018.0
2017-11-27T03:21:51.807Z,1018.0
2017-11-27T03:23:13.279Z,1018.0
2017-11-27T03:24:14.662Z,1018.0
2017-11-27T03:25:36.135Z,1018.0
2017-11-27T03:26:37.519Z,1018.0
2017-11-27T03:27:59.151Z,1018.0
2017-11-27T03:29:00.539Z,1018.0
2017-11-27T03:30:22.009Z,1018.0
2017-11-27T03:31:23.391Z,1018.0
2017-11-27T03:32:44.863Z,1017.9
2017-11-27T03:33:46.256Z,1017.9
2017-11-27T03:35:07.871Z,1017.8
2017-11-27T03:36:09.288Z,1017.8
2017-11-27T03:37:30.727Z,1017.8
2017-11-27T03:38:32.111Z,1017.8
2017-11-27T03:39:53.583Z,1017.7
2017-11-27T03:40:54.968Z,1017.7
2017-11-27T03:42:16.455Z,1017.7
2017-11-27T03:43:17.840Z,1017.7
2017-11-27T03:44:39.320Z,1017.7
2017-11-27T03:45:40.703Z,1017.7
2017-11-27T03:47:02.176Z,1017.7
2017-11-27T03:48:03.559Z,1017.7
2017-11-27T03:49:25.062Z,1017.7
2017-11-27T03:50:26.447Z,1017.7
2017-11-27T03:51:47.920Z,1017.7
2017-11-27T03:52:49.303Z,1017.7
2017-11-27T03:54:10.783Z,1017.7
2017-11-27T03:55:12.168Z,1017.7
2017-11-27T03:56:33.792Z,1017.7
2017-11-27T03:57:35.175Z,1017.6
2017-11-27T03:58:56.654Z,1017.6
2017-11-27T03:59:58.032Z,1017.6
2017-11-27T04:01:19.504Z,1017.6
2017-11-27T04:02:20.887Z,1017.6
2017-11-27T04:03:42.376Z,1017.6
2017-11-27T04:04:43.761Z,1017.5
2017-11-27T04:06:05.232Z,1017.5
2017-11-27T04:07:06.616Z,1017.4
2017-11-27T04:08:28.096Z,1017.4
2017-11-27T04:09:29.481Z,1017.4
2017-11-27T04:10:50.984Z,1017.4
2017-11-27T04:11:52.368Z,1017.4
2017-11-27T04:13:13.850Z,1017.3
2017-11-27T04:14:15.232Z,1017.4
2017-11-27T04:15:36.707Z,1017.3
2017-11-27T04:16:38.088Z,1017.3
2017-11-27T04:17:59.719Z,1017.3
2017-11-27T04:19:01.104Z,1017.3
2017-11-27T04:20:22.586Z,1017.3
2017-11-27T04:21:23.960Z,1017.3
2017-11-27T04:22:45.432Z,1017.2
2017-11-27T04:23:46.816Z,1017.2
2017-11-27T04:25:08.456Z,1017.2
2017-11-27T04:26:09.848Z,1017.2
2017-11-27T04:27:31.320Z,1017.1
2017-11-27T04:28:32.704Z,1017.2
2017-11-27T04:29:54.176Z,1017.2
2017-11-27T04:30:55.560Z,1017.2
2017-11-27T04:32:17.192Z,1017.1
2017-11-27T04:33:18.577Z,1017.1
2017-11-27T04:34:40.048Z,1017.1
2017-11-27T04:35:41.432Z,1017.1
2017-11-27T04:37:02.904Z,1017.1
2017-11-27T04:38:04.289Z,1017.1
2017-11-27T04:39:25.793Z,1017.0
2017-11-27T04:40:27.176Z,1017.0
2017-11-27T04:41:48.651Z,1017.0
2017-11-27T04:42:50.033Z,1016.9
2017-11-27T04:44:11.513Z,1017.0
2017-11-27T04:45:12.898Z,1017.0
2017-11-27T04:46:34.528Z,1017.0
2017-11-27T04:47:35.912Z,1017.0
2017-11-27T04:48:57.393Z,1016.9
2017-11-27T04:49:58.778Z,1016.9
2017-11-27T04:51:20.249Z,1016.9
2017-11-27T04:52:21.640Z,1016.9
2017-11-27T04:53:43.265Z,1016.9
2017-11-27T04:54:44.655Z,1016.9
2017-11-27T04:56:06.122Z,1016.9
2017-11-27T04:57:07.505Z,1016.9
2017-11-27T04:58:28.977Z,1016.8
2017-11-27T04:59:30.361Z,1016.8
2017-11-27T05:00:51.865Z,1016.8
2017-11-27T05:01:53.249Z,1016.7
2017-11-27T05:03:14.721Z,1016.8
2017-11-27T05:04:16.106Z,1016.8
2017-11-27T05:05:37.578Z,1016.7
2017-11-27T05:06:38.961Z,1016.6
2017-11-27T05:08:00.589Z,1016.6
2017-11-27T05:09:01.969Z,1016.6
2017-11-27T05:10:23.442Z,1016.6
2017-11-27T05:11:24.830Z,1016.6
2017-11-27T05:12:46.297Z,1016.5
2017-11-27T05:13:47.682Z,1016.6
2017-11-27T05:15:09.306Z,1016.5
2017-11-27T05:16:10.695Z,1016.5
2017-11-27T05:17:32.162Z,1016.4
2017-11-27T05:18:33.551Z,1016.4
2017-11-27T05:19:55.017Z,1016.4
2017-11-27T05:20:56.401Z,1016.4
2017-11-27T05:22:17.905Z,1016.4
2017-11-27T05:23:19.290Z,1016.4
2017-11-27T05:24:40.761Z,1016.5
2017-11-27T05:25:42.145Z,1016.4
2017-11-27T05:27:03.619Z,1016.4
2017-11-27T05:28:05.002Z,1016.4
2017-11-27T05:29:26.684Z,1016.4
2017-11-27T05:30:28.066Z,1016.4
2017-11-27T05:31:49.542Z,1016.4
2017-11-27T05:32:50.921Z,1016.4
2017-11-27T05:34:12.402Z,1016.3
2017-11-27T05:35:13.786Z,1016.4
2017-11-27T05:36:35.371Z,1016.3
2017-11-27T05:37:36.754Z,1016.2
2017-11-27T05:38:58.233Z,1016.2
2017-11-27T05:39:59.617Z,1016.2
2017-11-27T05:41:21.089Z,1016.2
2017-11-27T05:42:22.474Z,1016.2
2017-11-27T05:43:44.125Z,1016.2
2017-11-27T05:44:45.507Z,1016.1
2017-11-27T05:46:06.979Z,1016.1
2017-11-27T05:47:08.362Z,1016.1
2017-11-27T05:48:29.834Z,1016.2
2017-11-27T05:49:31.218Z,1016.1
2017-11-27T05:50:52.721Z,1016.1
2017-11-27T05:51:54.106Z,1016.0
2017-11-27T05:53:15.578Z,1016.0
2017-11-27T05:54:16.964Z,1016.0
2017-11-27T05:55:38.442Z,1016.0
2017-11-27T05:56:39.826Z,1015.9
2017-11-27T05:58:01.330Z,1015.9
2017-11-27T05:59:02.714Z,1015.9
2017-11-27T06:00:24.187Z,1015.9
2017-11-27T06:01:25.570Z,1015.8
2017-11-27T06:02:47.042Z,1015.8
2017-11-27T06:03:48.426Z,1015.8
2017-11-27T06:05:09.930Z,1015.8
2017-11-27T06:06:11.314Z,1015.8
2017-11-27T06:07:32.787Z,1015.7
2017-11-27T06:08:34.173Z,1015.7
2017-11-27T06:09:55.643Z,1015.7
2017-11-27T06:10:57.027Z,1015.7
2017-11-27T06:12:18.651Z,1015.6
2017-11-27T06:13:20.035Z,1015.7
2017-11-27T06:14:41.507Z,1015.6
2017-11-27T06:15:42.890Z,1015.6
2017-11-27T06:17:04.371Z,1015.5
2017-11-27T06:18:05.755Z,1015.5
2017-11-27T06:19:27.259Z,1015.5
2017-11-27T06:20:28.644Z,1015.5
2017-11-27T06:21:50.123Z,1015.4
2017-11-27T06:22:51.511Z,1015.5
2017-11-27T06:24:12.978Z,1015.4
2017-11-27T06:25:14.362Z,1015.4
2017-11-27T06:26:35.987Z,1015.4
2017-11-27T06:27:37.370Z,1015.4
2017-11-27T06:28:58.852Z,1015.3
2017-11-27T06:30:00.236Z,1015.3
2017-11-27T06:31:21.707Z,1015.4
2017-11-27T06:32:23.091Z,1015.3
2017-11-27T06:33:44.595Z,1015.3
2017-11-27T06:34:45.980Z,1015.3
2017-11-27T06:36:07.459Z,1015.3
2017-11-27T06:37:08.843Z,1015.2
2017-11-27T06:38:30.327Z,1015.2
2017-11-27T06:39:31.699Z,1015.2
2017-11-27T06:40:53.207Z,1015.2
2017-11-27T06:41:54.587Z,1015.2
2017-11-27T06:43:16.067Z,1015.2
2017-11-27T06:44:17.456Z,1015.2
2017-11-27T06:45:38.922Z,1015.2
2017-11-27T06:46:40.307Z,1015.1
2017-11-27T06:48:01.931Z,1015.1
2017-11-27T06:49:03.315Z,1015.1
2017-11-27T06:50:24.787Z,1015.1
2017-11-27T06:51:26.174Z,1015.1
2017-11-27T06:52:47.643Z,1015.0
2017-11-27T06:53:49.031Z,1015.0
2017-11-27T06:55:10.539Z,1014.9
2017-11-27T06:56:11.916Z,1014.9
2017-11-27T06:57:33.388Z,1014.9
2017-11-27T06:58:34.771Z,1014.9
2017-11-27T06:59:56.252Z,1014.8
2017-11-27T07:00:57.635Z,1014.9
2017-11-27T07:02:19.284Z,1014.8
2017-11-27T07:03:20.660Z,1014.9
2017-11-27T07:04:42.132Z,1014.8
2017-11-27T07:05:43.515Z,1014.8
2017-11-27T07:07:04.988Z,1014.8
2017-11-27T07:08:06.372Z,1014.7
2017-11-27T07:09:27.876Z,1014.7
2017-11-27T07:10:29.260Z,1014.7
2017-11-27T07:11:50.732Z,1014.7
2017-11-27T07:12:52.116Z,1014.7
2017-11-27T07:14:13.587Z,1014.6
2017-11-27T07:15:14.972Z,1014.6
2017-11-27T07:16:36.612Z,1014.6
2017-11-27T07:17:38.008Z,1014.6
2017-11-27T07:18:59.476Z,1014.6
2017-11-27T07:20:00.859Z,1014.5
2017-11-27T07:21:22.332Z,1014.5
2017-11-27T07:22:23.716Z,1014.5
2017-11-27T07:23:45.220Z,1014.5
2017-11-27T07:24:46.604Z,1014.5
2017-11-27T07:26:08.076Z,1014.5
2017-11-27T07:27:09.460Z,1014.5
2017-11-27T07:28:30.933Z,1014.5
2017-11-27T07:29:32.316Z,1014.5
2017-11-27T07:30:53.948Z,1014.4
2017-11-27T07:31:55.334Z,1014.4
2017-11-27T07:33:16.805Z,1014.4
2017-11-27T07:34:18.188Z,1014.4
2017-11-27T07:35:39.669Z,1014.4
2017-11-27T07:36:41.052Z,1014.4
2017-11-27T07:38:02.684Z,1014.4
2017-11-27T07:39:04.069Z,1014.3
2017-11-27T07:40:25.557Z,1014.3
2017-11-27T07:41:26.940Z,1014.2
2017-11-27T07:42:48.424Z,1014.2
2017-11-27T07:43:49.804Z,1014.2
2017-11-27T07:45:11.452Z,1014.2
2017-11-27T07:46:12.828Z,1014.2
2017-11-27T07:47:34.308Z,1014.2
2017-11-27T07:48:35.693Z,1014.2
2017-11-27T07:49:57.178Z,1014.1
2017-11-27T07:50:58.556Z,1014.1
2017-11-27T07:52:20.061Z,1014.1
2017-11-27T07:53:21.444Z,1014.1
2017-11-27T07:54:42.925Z,1014.0
2017-11-27T07:55:44.308Z,1014.0
2017-11-27T07:57:05.789Z,1013.9
2017-11-27T07:58:07.172Z,1013.9
2017-11-27T07:59:28.677Z,1013.9
2017-11-27T08:00:30.061Z,1013.9
2017-11-27T08:01:51.543Z,1013.8
2017-11-27T08:02:52.925Z,1013.8
2017-11-27T08:04:14.405Z,1013.8
2017-11-27T08:05:15.792Z,1013.8
2017-11-27T08:06:37.293Z,1013.8
2017-11-27T08:07:38.677Z,1013.7
2017-11-27T08:09:00.157Z,1013.7
2017-11-27T08:10:01.564Z,1013.7
2017-11-27T08:11:23.014Z,1013.7
2017-11-27T08:12:24.403Z,1013.7
2017-11-27T08:13:45.901Z,1013.6
2017-11-27T08:14:47.285Z,1013.6
2017-11-27T08:16:08.765Z,1013.6
2017-11-27T08:17:10.149Z,1013.6
2017-11-27T08:18:31.621Z,1013.6
2017-11-27T08:19:33.005Z,1013.5
2017-11-27T08:20:54.509Z,1013.5
2017-11-27T08:21:55.893Z,1013.5
2017-11-27T08:23:17.376Z,1013.5
2017-11-27T08:24:18.758Z,1013.4
2017-11-27T08:25:40.237Z,1013.4
2017-11-27T08:26:41.621Z,1013.4
2017-11-27T08:28:03.125Z,1013.4
2017-11-27T08:29:04.509Z,1013.3
2017-11-27T08:30:25.993Z,1013.3
2017-11-27T08:31:27.373Z,1013.3
2017-11-27T08:32:48.853Z,1013.3
2017-11-27T08:33:50.245Z,1013.2
2017-11-27T08:35:11.742Z,1013.2
2017-11-27T08:36:13.126Z,1013.2
2017-11-27T08:37:34.606Z,1013.2
2017-11-27T08:38:35.990Z,1013.2
2017-11-27T08:39:57.469Z,1013.2
2017-11-27T08:40:58.854Z,1013.2
2017-11-27T08:42:20.341Z,1013.1
2017-11-27T08:43:21.725Z,1013.2
2017-11-27T08:44:43.205Z,1013.1
2017-11-27T08:45:44.590Z,1013.1
2017-11-27T08:47:06.069Z,1013.2
2017-11-27T08:48:07.454Z,1013.1
2017-11-27T08:49:28.957Z,1013.2
2017-11-27T08:50:30.348Z,1013.1
2017-11-27T08:51:51.822Z,1013.1
2017-11-27T08:52:53.209Z,1013.0
2017-11-27T08:54:14.692Z,1013.0
2017-11-27T08:55:16.069Z,1013.0
2017-11-27T08:56:37.717Z,1013.0
2017-11-27T08:57:39.094Z,1012.9
2017-11-27T08:59:00.574Z,1012.9
2017-11-27T09:00:01.958Z,1012.9
2017-11-27T09:01:23.441Z,1012.9
2017-11-27T09:02:24.822Z,1012.8
2017-11-27T09:03:46.462Z,1012.8
2017-11-27T09:04:47.846Z,1012.8
2017-11-27T09:06:09.327Z,1012.8
2017-11-27T09:07:10.711Z,1012.8
2017-11-27T09:08:32.185Z,1012.7
2017-11-27T09:09:33.565Z,1012.7
2017-11-27T09:10:55.057Z,1012.5
2017-11-27T09:11:56.441Z,1012.5
2017-11-27T09:13:17.912Z,1012.6
2017-11-27T09:14:19.294Z,1012.5
2017-11-27T09:15:40.774Z,1012.4
2017-11-27T09:16:42.158Z,1012.4
2017-11-27T09:18:03.662Z,1012.4
2017-11-27T09:19:05.045Z,1012.4
2017-11-27T09:20:26.526Z,1012.3
2017-11-27T09:21:27.910Z,1012.4
2017-11-27T09:22:49.383Z,1012.3
2017-11-27T09:23:50.766Z,1012.3
2017-11-27T09:25:12.279Z,1012.3
2017-11-27T09:26:13.662Z,1012.2
2017-11-27T09:27:35.143Z,1012.2
2017-11-27T09:28:36.526Z,1012.1
2017-11-27T09:29:57.999Z,1012.1
2017-11-27T09:30:59.383Z,1012.1
2017-11-27T09:32:20.887Z,1012.1
2017-11-27T09:33:22.270Z,1012.1
2017-11-27T09:34:43.743Z,1012.0
2017-11-27T09:35:45.126Z,1012.1
2017-11-27T09:37:06.607Z,1012.0
2017-11-27T09:38:08.001Z,1011.9
2017-11-27T09:39:29.623Z,1012.0
2017-11-27T09:40:31.010Z,1011.9
2017-11-27T09:41:52.486Z,1011.8
2017-11-27T09:42:53.871Z,1011.8
2017-11-27T09:44:15.342Z,1011.9
2017-11-27T09:45:16.737Z,1011.9
2017-11-27T09:46:38.231Z,1011.9
2017-11-27T09:47:39.615Z,1011.8
2017-11-27T09:49:01.094Z,1011.9
2017-11-27T09:50:02.478Z,1011.8
2017-11-27T09:51:23.986Z,1011.9
2017-11-27T09:52:25.335Z,1011.8
2017-11-27T09:53:46.968Z,1011.9
2017-11-27T09:54:48.351Z,1011.8
2017-11-27T09:56:09.832Z,1011.8
2017-11-27T09:57:11.215Z,1011.8
2017-11-27T09:58:32.687Z,1011.8
2017-11-27T09:59:34.095Z,1011.8
2017-11-27T10:00:55.608Z,1011.8
2017-11-27T10:01:56.991Z,1011.8
2017-11-27T10:03:18.463Z,1011.8
2017-11-27T10:04:19.848Z,1011.8
2017-11-27T10:05:41.327Z,1011.7
2017-11-27T10:06:42.712Z,1011.8
2017-11-27T10:08:04.347Z,1011.7
2017-11-27T10:09:05.728Z,1011.6
2017-11-27T10:10:27.199Z,1011.7
2017-11-27T10:11:28.583Z,1011.7
2017-11-27T10:12:50.063Z,1011.6
2017-11-27T10:13:51.448Z,1011.6
2017-11-27T10:15:13.072Z,1011.6
2017-11-27T10:16:14.456Z,1011.6
2017-11-27T10:17:35.928Z,1011.6
2017-11-27T10:18:37.312Z,1011.5
2017-11-27T10:19:58.792Z,1011.4
2017-11-27T10:21:00.175Z,1011.4
2017-11-27T10:22:21.808Z,1011.4
2017-11-27T10:23:23.192Z,1011.3
2017-11-27T10:24:44.671Z,1011.3
2017-11-27T10:25:46.056Z,1011.3
2017-11-27T10:27:07.542Z,1011.3
2017-11-27T10:28:08.911Z,1011.2
2017-11-27T10:29:30.550Z,1011.3
2017-11-27T10:30:31.938Z,1011.2
2017-11-27T10:31:53.399Z,1011.2
2017-11-27T10:32:54.783Z,1011.2
2017-11-27T10:34:16.257Z,1011.2
2017-11-27T10:35:17.640Z,1011.0
2017-11-27T10:36:39.271Z,1011.0
2017-11-27T10:37:40.657Z,1011.1
2017-11-27T10:39:02.128Z,1011.0
2017-11-27T10:40:03.511Z,1011.0
2017-11-27T10:41:24.985Z,1010.9
2017-11-27T10:42:26.368Z,1010.9
2017-11-27T10:43:48.011Z,1010.9
2017-11-27T10:44:49.377Z,1010.9
2017-11-27T10:46:10.848Z,1010.9
2017-11-27T10:47:12.232Z,1010.8
2017-11-27T10:48:33.713Z,1010.7
2017-11-27T10:49:35.096Z,1010.7
2017-11-27T10:50:56.600Z,1010.5
2017-11-27T10:51:57.984Z,1010.5
2017-11-27T10:53:19.457Z,1010.4
2017-11-27T10:54:20.841Z,1010.3
2017-11-27T10:55:42.321Z,1010.3
2017-11-27T10:56:43.705Z,1010.2
2017-11-27T10:58:05.207Z,1010.1
2017-11-27T10:59:06.600Z,1010.1
2017-11-27T11:00:28.072Z,1010.2
2017-11-27T11:01:29.457Z,1010.2
2017-11-27T11:02:50.930Z,1010.1
2017-11-27T11:03:52.313Z,1010.0
2017-11-27T11:05:13.801Z,1010.0
2017-11-27T11:06:15.185Z,1009.9
2017-11-27T11:07:36.655Z,1009.9
2017-11-27T11:08:38.064Z,1009.8
2017-11-27T11:09:59.520Z,1009.7
2017-11-27T11:11:00.905Z,1009.7
2017-11-27T11:12:22.537Z,1009.6
2017-11-27T11:13:23.920Z,1009.7
2017-11-27T11:14:45.402Z,1009.5
2017-11-27T11:15:46.789Z,1009.5
2017-11-27T11:17:08.257Z,1009.5
2017-11-27T11:18:09.640Z,1009.5
2017-11-27T11:19:31.281Z,1009.4
2017-11-27T11:20:32.672Z,1009.4
2017-11-27T11:21:54.154Z,1009.3
2017-11-27T11:22:55.537Z,1009.3
2017-11-27T11:24:17.010Z,1009.3
2017-11-27T11:25:18.394Z,1009.3
2017-11-27T11:26:39.976Z,1009.2
2017-11-27T11:27:41.369Z,1009.3
2017-11-27T11:29:02.846Z,1009.1
2017-11-27T11:30:04.226Z,1009.2
2017-11-27T11:31:25.706Z,1009.2
2017-11-27T11:32:27.090Z,1009.2
2017-11-27T11:33:48.713Z,1009.2
2017-11-27T11:34:50.105Z,1009.1
2017-11-27T11:36:11.569Z,1009.2
2017-11-27T11:37:12.954Z,1009.1
2017-11-27T11:38:34.522Z,1009.1
2017-11-27T11:39:35.914Z,1009.1
2017-11-27T11:40:57.546Z,1009.2
2017-11-27T11:41:58.930Z,1009.2
2017-11-27T11:43:20.410Z,1009.2
2017-11-27T11:44:21.796Z,1009.1
2017-11-27T11:45:43.274Z,1009.1
2017-11-27T11:46:44.659Z,1009.1
2017-11-27T11:48:06.154Z,1009.1
2017-11-27T11:49:07.538Z,1009.2
2017-11-27T11:50:29.019Z,1009.1
2017-11-27T11:51:30.402Z,1009.1
2017-11-27T11:52:51.873Z,1009.2
2017-11-27T11:53:53.258Z,1009.1
2017-11-27T11:55:14.882Z,1009.0
2017-11-27T11:56:16.266Z,1009.0
2017-11-27T11:57:37.738Z,1009.0
2017-11-27T11:58:39.122Z,1008.9
2017-11-27T12:00:00.602Z,1008.8
2017-11-27T12:01:01.986Z,1008.8
2017-11-27T12:02:23.490Z,1008.8
2017-11-27T12:03:24.873Z,1008.8
2017-11-27T12:04:46.347Z,1008.7
2017-11-27T12:05:47.730Z,1008.7
2017-11-27T12:07:09.210Z,1008.7
2017-11-27T12:08:10.594Z,1008.7
2017-11-27T12:09:32.227Z,1008.7
2017-11-27T12:10:33.611Z,1008.6
2017-11-27T12:11:55.089Z,1008.7
2017-11-27T12:12:56.473Z,1008.7
2017-11-27T12:14:17.946Z,1008.6
2017-11-27T12:15:19.330Z,1008.5
2017-11-27T12:16:40.954Z,1008.6
2017-11-27T12:17:42.338Z,1008.6
2017-11-27T12:19:03.811Z,1008.5
2017-11-27T12:20:05.195Z,1008.5
2017-11-27T12:21:26.674Z,1008.5
2017-11-27T12:22:28.059Z,1008.5
2017-11-27T12:23:49.563Z,1008.3
2017-11-27T12:24:50.946Z,1008.4
2017-11-27T12:26:12.427Z,1008.4
2017-11-27T12:27:13.811Z,1008.3
2017-11-27T12:28:35.283Z,1008.4
2017-11-27T12:29:36.666Z,1008.4
2017-11-27T12:30:58.323Z,1008.4
2017-11-27T12:31:59.707Z,1008.4
2017-11-27T12:33:21.179Z,1008.3
2017-11-27T12:34:22.563Z,1008.3
2017-11-27T12:35:44.035Z,1008.3
2017-11-27T12:36:45.419Z,1008.3
2017-11-27T12:38:07.051Z,1008.3
2017-11-27T12:39:08.435Z,1008.2
2017-11-27T12:40:29.915Z,1008.3
2017-11-27T12:41:31.299Z,1008.2
2017-11-27T12:42:52.770Z,1008.3
2017-11-27T12:43:54.155Z,1008.2
2017-11-27T12:45:15.643Z,1008.2
2017-11-27T12:46:17.027Z,1008.1
2017-11-27T12:47:38.508Z,1008.2
2017-11-27T12:48:39.891Z,1008.1
2017-11-27T12:50:01.377Z,1008.1
2017-11-27T12:51:02.755Z,1008.1
2017-11-27T12:52:24.244Z,1008.1
2017-11-27T12:53:25.627Z,1008.1
2017-11-27T12:54:47.106Z,1008.1
2017-11-27T12:55:48.492Z,1008.1
2017-11-27T12:57:09.963Z,1008.1
2017-11-27T12:58:11.348Z,1008.1
2017-11-27T12:59:32.844Z,1008.1
2017-11-27T13:00:34.228Z,1008.0
2017-11-27T13:01:55.707Z,1008.0
2017-11-27T13:02:57.091Z,1007.9
2017-11-27T13:04:18.572Z,1007.9
2017-11-27T13:05:19.956Z,1007.9
2017-11-27T13:06:41.460Z,1007.9
2017-11-27T13:07:42.844Z,1007.9
2017-11-27T13:09:04.324Z,1007.9
2017-11-27T13:10:05.714Z,1007.8
2017-11-27T13:11:27.188Z,1007.8
2017-11-27T13:12:28.573Z,1007.8
2017-11-27T13:13:50.220Z,1007.8
2017-11-27T13:14:51.604Z,1007.8
2017-11-27T13:16:13.076Z,1007.7
2017-11-27T13:17:14.460Z,1007.7
2017-11-27T13:18:35.940Z,1007.6
2017-11-27T13:19:37.324Z,1007.7
2017-11-27T13:20:58.948Z,1007.6
2017-11-27T13:22:00.332Z,1007.6
2017-11-27T13:23:21.812Z,1007.6
2017-11-27T13:24:23.196Z,1007.6
2017-11-27T13:25:44.676Z,1007.6
2017-11-27T13:26:46.061Z,1007.4
2017-11-27T13:28:07.710Z,1007.4
2017-11-27T13:29:09.096Z,1007.5
2017-11-27T13:30:30.572Z,1007.5
2017-11-27T13:31:31.956Z,1007.4
2017-11-27T13:32:53.436Z,1007.4
2017-11-27T13:33:54.819Z,1007.4
2017-11-27T13:35:16.323Z,1007.3
2017-11-27T13:36:17.707Z,1007.3
2017-11-27T13:37:39.188Z,1007.4
2017-11-27T13:38:40.572Z,1007.3
2017-11-27T13:40:02.121Z,1007.2
2017-11-27T13:41:03.501Z,1007.3
2017-11-27T13:42:25.006Z,1007.2
2017-11-27T13:43:26.391Z,1007.3
2017-11-27T13:44:47.867Z,1007.2
2017-11-27T13:45:49.245Z,1007.2
2017-11-27T13:47:10.716Z,1007.1
2017-11-27T13:48:12.101Z,1007.2
2017-11-27T13:49:33.604Z,1007.2
2017-11-27T13:50:34.988Z,1007.1
2017-11-27T13:51:56.477Z,1007.1
2017-11-27T13:52:57.866Z,1007.1
2017-11-27T13:54:19.333Z,1007.0
2017-11-27T13:55:20.717Z,1006.9
2017-11-27T13:56:42.220Z,1007.0
2017-11-27T13:57:43.604Z,1007.0
2017-11-27T13:59:05.084Z,1007.0
2017-11-27T14:00:06.469Z,1007.0
2017-11-27T14:01:27.942Z,1006.9
2017-11-27T14:02:29.332Z,1007.0
2017-11-27T14:03:50.820Z,1006.9
2017-11-27T14:04:52.205Z,1006.9
2017-11-27T14:06:13.685Z,1006.9
2017-11-27T14:07:15.069Z,1006.9
2017-11-27T14:08:36.541Z,1006.8
2017-11-27T14:09:37.925Z,1006.8
2017-11-27T14:10:59.549Z,1006.8
2017-11-27T14:12:00.933Z,1006.8
2017-11-27T14:13:22.407Z,1006.9
2017-11-27T14:14:23.789Z,1006.8
2017-11-27T14:15:45.261Z,1006.8
2017-11-27T14:16:46.645Z,1006.7
2017-11-27T14:18:08.149Z,1006.7
2017-11-27T14:19:09.533Z,1006.8
2017-11-27T14:20:31.013Z,1006.8
2017-11-27T14:21:32.398Z,1006.8
2017-11-27T14:22:53.869Z,1006.8
2017-11-27T14:23:55.253Z,1006.8
2017-11-27T14:25:16.756Z,1006.8
2017-11-27T14:26:18.141Z,1006.8
2017-11-27T14:27:39.621Z,1006.8
2017-11-27T14:28:41.005Z,1006.7
2017-11-27T14:30:02.477Z,1006.8
2017-11-27T14:31:03.861Z,1006.7
2017-11-27T14:32:25.486Z,1006.7
2017-11-27T14:33:26.870Z,1006.7
2017-11-27T14:34:48.350Z,1006.7
2017-11-27T14:35:49.734Z,1006.7
2017-11-27T14:37:11.213Z,1006.8
2017-11-27T14:38:12.598Z,1006.7
2017-11-27T14:39:34.101Z,1006.7
2017-11-27T14:40:35.491Z,1006.7
2017-11-27T14:41:56.966Z,1006.7
2017-11-27T14:42:58.350Z,1006.7
2017-11-27T14:44:19.830Z,1006.7
2017-11-27T14:45:21.214Z,1006.7
2017-11-27T14:46:42.702Z,1006.7
2017-11-27T14:47:44.086Z,1006.7
2017-11-27T14:49:05.566Z,1006.6
2017-11-27T14:50:06.950Z,1006.6
2017-11-27T14:51:28.430Z,1006.6